createdAt,value
2017-10-21T00:01:35.190Z,16.39
2017-10-21T00:04:02.819Z,16.40
2017-10-21T00:06:30.492Z,16.39
2017-10-21T00:08:58.427Z,16.40
2017-10-21T00:11:26.064Z,16.43
2017-10-21T00:13:53.637Z,16.46
2017-10-21T00:16:22.348Z,16.22
2017-10-21T00:18:50.556Z,16.40
2017-10-21T00:21:18.209Z,16.01
2017-10-21T00:23:45.756Z,16.30
2017-10-21T00:26:14.357Z,16.26
2017-10-21T00:28:42.424Z,16.25
2017-10-21T00:31:11.741Z,16.25
2017-10-21T00:33:40.517Z,16.31
2017-10-21T00:36:09.936Z,16.25
2017-10-21T00:38:40.675Z,16.33
2017-10-21T00:41:10.738Z,16.32
2017-10-21T00:43:42.445Z,16.28
2017-10-21T00:46:10.823Z,16.23
2017-10-21T00:48:40.166Z,16.26
2017-10-21T00:51:10.593Z,16.16
2017-10-21T00:53:38.871Z,16.17
2017-10-21T00:56:06.429Z,16.20
2017-10-21T00:58:34.093Z,16.01
2017-10-21T01:01:01.735Z,16.12
2017-10-21T01:03:30.476Z,16.20
2017-10-21T01:05:58.958Z,16.20
2017-10-21T01:08:26.604Z,16.21
2017-10-21T01:10:57.841Z,16.18
2017-10-21T01:13:28.780Z,16.15
2017-10-21T01:15:57.472Z,16.12
2017-10-21T01:18:25.061Z,16.10
2017-10-21T01:20:52.625Z,15.96
2017-10-21T01:23:21.574Z,15.88
2017-10-21T01:25:49.398Z,15.78
2017-10-21T01:28:17.271Z,15.93
2017-10-21T01:30:45.036Z,15.99
2017-10-21T01:33:12.735Z,16.01
2017-10-21T01:35:41.433Z,15.91
2017-10-21T01:38:09.121Z,15.93
2017-10-21T01:40:36.805Z,15.94
2017-10-21T01:43:05.035Z,15.90
2017-10-21T01:45:33.541Z,15.94
2017-10-21T01:48:01.955Z,15.80
2017-10-21T01:50:29.546Z,15.71
2017-10-21T01:52:57.225Z,15.66
2017-10-21T01:55:24.982Z,15.55
2017-10-21T01:57:52.818Z,15.59
2017-10-21T02:00:21.122Z,15.59
2017-10-21T02:02:49.663Z,15.51
2017-10-21T02:05:17.540Z,15.40
2017-10-21T02:07:45.188Z,15.43
2017-10-21T02:10:12.839Z,15.45
2017-10-21T02:12:40.562Z,15.36
2017-10-21T02:15:08.345Z,15.26
2017-10-21T02:17:37.463Z,15.06
2017-10-21T02:20:05.472Z,15.21
2017-10-21T02:22:34.852Z,15.21
2017-10-21T02:25:02.531Z,15.21
2017-10-21T02:27:30.291Z,15.13
2017-10-21T02:29:57.863Z,15.28
2017-10-21T02:32:25.794Z,15.28
2017-10-21T02:34:53.613Z,15.28
2017-10-21T02:37:21.208Z,15.28
2017-10-21T02:39:49.091Z,15.19
2017-10-21T02:42:17.470Z,15.22
2017-10-21T02:44:45.026Z,15.16
2017-10-21T02:47:13.343Z,15.11
2017-10-21T02:49:41.525Z,15.06
2017-10-21T02:52:15.647Z,14.88
2017-10-21T02:54:44.253Z,14.73
2017-10-21T02:57:12.275Z,14.79
2017-10-21T02:59:40.050Z,14.76
2017-10-21T03:02:11.098Z,14.68
2017-10-21T03:04:38.765Z,14.65
2017-10-21T03:07:06.546Z,14.61
2017-10-21T03:09:37.013Z,14.64
2017-10-21T03:12:07.760Z,14.58
2017-10-21T03:14:35.608Z,14.60
2017-10-21T03:17:03.275Z,14.54
2017-10-21T03:19:30.886Z,14.39
2017-10-21T03:21:58.496Z,14.18
2017-10-21T03:24:26.186Z,14.21
2017-10-21T03:26:53.833Z,14.29
2017-10-21T03:29:22.742Z,14.14
2017-10-21T03:31:51.420Z,13.93
2017-10-21T03:34:19.231Z,14.06
2017-10-21T03:36:48.132Z,13.78
2017-10-21T03:39:15.799Z,13.98
2017-10-21T03:41:44.121Z,13.99
2017-10-21T03:44:11.718Z,13.96
2017-10-21T03:46:39.490Z,14.11
2017-10-21T03:49:07.036Z,14.23
2017-10-21T03:51:38.045Z,14.30
2017-10-21T03:54:05.967Z,14.39
2017-10-21T03:56:33.586Z,14.25
2017-10-21T03:59:01.492Z,14.35
2017-10-21T04:01:29.154Z,14.46
2017-10-21T04:03:56.881Z,14.61
2017-10-21T04:06:24.473Z,14.69
2017-10-21T04:08:55.548Z,14.74
2017-10-21T04:11:23.019Z,14.73
2017-10-21T04:13:50.641Z,14.78
2017-10-21T04:16:18.631Z,14.53
2017-10-21T04:18:46.390Z,14.61
2017-10-21T04:21:14.075Z,14.59
2017-10-21T04:23:41.654Z,14.56
2017-10-21T04:26:10.010Z,14.27
2017-10-21T04:28:37.664Z,14.18
2017-10-21T04:31:05.293Z,14.23
2017-10-21T04:33:34.606Z,14.18
2017-10-21T04:36:09.057Z,14.19
2017-10-21T04:38:37.439Z,14.22
2017-10-21T04:41:09.437Z,14.28
2017-10-21T04:43:43.866Z,14.31
2017-10-21T04:46:16.614Z,14.35
2017-10-21T04:48:47.947Z,14.40
2017-10-21T04:51:15.688Z,14.30
2017-10-21T04:53:45.008Z,14.29
2017-10-21T04:56:13.354Z,14.26
2017-10-21T04:58:41.754Z,14.20
2017-10-21T05:01:10.324Z,14.41
2017-10-21T05:03:38.665Z,14.07
2017-10-21T05:06:07.103Z,14.49
2017-10-21T05:08:34.978Z,14.32
2017-10-21T05:11:04.339Z,14.48
2017-10-21T05:13:34.033Z,14.44
2017-10-21T05:16:02.696Z,14.46
2017-10-21T05:18:31.276Z,14.47
2017-10-21T05:20:58.999Z,14.49
2017-10-21T05:23:27.411Z,14.46
2017-10-21T05:25:55.459Z,14.32
2017-10-21T05:28:23.428Z,14.09
2017-10-21T05:30:51.339Z,14.22
2017-10-21T05:33:21.522Z,14.24
2017-10-21T05:35:49.178Z,14.05
2017-10-21T05:38:17.274Z,14.03
2017-10-21T05:40:44.940Z,13.99
2017-10-21T05:43:12.790Z,14.11
2017-10-21T05:45:40.415Z,14.28
2017-10-21T05:48:08.105Z,14.27
2017-10-21T05:50:36.334Z,14.34
2017-10-21T05:53:04.017Z,14.33
2017-10-21T05:55:32.364Z,14.29
2017-10-21T05:58:00.212Z,14.31
2017-10-21T06:00:27.829Z,14.28
2017-10-21T06:02:55.429Z,14.23
2017-10-21T06:05:23.212Z,14.20
2017-10-21T06:07:50.978Z,14.27
2017-10-21T06:10:18.559Z,14.26
2017-10-21T06:12:46.166Z,14.29
2017-10-21T06:15:14.086Z,14.28
2017-10-21T06:17:41.808Z,14.33
2017-10-21T06:20:09.514Z,14.33
2017-10-21T06:22:37.163Z,14.31
2017-10-21T06:25:04.981Z,14.22
2017-10-21T06:27:32.633Z,14.44
2017-10-21T06:30:00.426Z,14.47
2017-10-21T06:32:28.395Z,14.44
2017-10-21T06:34:56.031Z,14.55
2017-10-21T06:37:24.088Z,14.66
2017-10-21T06:39:51.603Z,14.98
2017-10-21T06:42:19.430Z,16.84
2017-10-21T06:44:47.498Z,18.25
2017-10-21T06:47:15.012Z,18.00
2017-10-21T06:49:42.592Z,17.36
2017-10-21T06:52:10.086Z,17.62
2017-10-21T06:54:37.913Z,19.03
2017-10-21T06:57:06.825Z,19.30
2017-10-21T06:59:34.519Z,20.51
2017-10-21T07:02:02.074Z,20.15
2017-10-21T07:04:29.770Z,19.47
2017-10-21T07:06:57.388Z,19.77
2017-10-21T07:09:26.940Z,20.41
2017-10-21T07:11:56.682Z,20.75
2017-10-21T07:14:24.265Z,20.00
2017-10-21T07:16:51.962Z,19.78
2017-10-21T07:19:19.637Z,19.72
2017-10-21T07:21:47.419Z,19.84
2017-10-21T07:24:15.228Z,19.65
2017-10-21T07:26:43.022Z,19.33
2017-10-21T07:29:11.100Z,19.29
2017-10-21T07:31:38.656Z,19.82
2017-10-21T07:34:06.201Z,19.95
2017-10-21T07:36:33.771Z,19.56
2017-10-21T07:39:06.812Z,20.40
2017-10-21T07:41:34.390Z,20.82
2017-10-21T07:44:01.970Z,20.50
2017-10-21T07:46:29.519Z,22.59
2017-10-21T07:48:57.017Z,22.25
2017-10-21T07:51:24.546Z,21.54
2017-10-21T07:53:52.094Z,21.32
2017-10-21T07:56:19.629Z,20.85
2017-10-21T07:58:47.152Z,21.23
2017-10-21T08:01:15.663Z,23.41
2017-10-21T08:03:43.237Z,23.43
2017-10-21T08:06:10.766Z,23.90
2017-10-21T08:08:38.348Z,25.40
2017-10-21T08:11:05.914Z,27.09
2017-10-21T08:13:33.598Z,27.55
2017-10-21T08:16:01.125Z,27.39
2017-10-21T08:18:28.634Z,28.54
2017-10-21T08:20:56.763Z,29.56
2017-10-21T08:23:24.263Z,30.76
2017-10-21T08:25:52.740Z,30.30
2017-10-21T08:28:22.183Z,31.06
2017-10-21T08:30:49.762Z,30.62
2017-10-21T08:33:17.465Z,29.51
2017-10-21T08:35:45.104Z,27.52
2017-10-21T08:38:12.682Z,25.92
2017-10-21T08:40:40.189Z,24.44
2017-10-21T08:43:07.836Z,23.38
2017-10-21T08:45:35.335Z,23.12
2017-10-21T08:48:03.813Z,23.27
2017-10-21T08:50:32.723Z,23.13
2017-10-21T08:53:00.861Z,23.20
2017-10-21T08:55:28.468Z,23.08
2017-10-21T09:00:30.773Z,22.43
2017-10-21T09:02:58.290Z,22.16
2017-10-21T09:05:25.950Z,21.70
2017-10-21T09:07:53.549Z,21.82
2017-10-21T09:10:22.045Z,21.73
2017-10-21T09:12:49.659Z,21.69
2017-10-21T09:15:17.614Z,21.41
2017-10-21T09:17:45.192Z,21.46
2017-10-21T09:20:12.736Z,21.71
2017-10-21T09:22:40.290Z,21.86
2017-10-21T09:25:08.310Z,22.05
2017-10-21T09:27:35.893Z,21.67
2017-10-21T09:30:03.604Z,21.32
2017-10-21T09:32:31.300Z,21.56
2017-10-21T09:34:58.882Z,22.27
2017-10-21T09:37:26.393Z,22.93
2017-10-21T09:39:54.889Z,22.55
2017-10-21T09:42:22.442Z,22.05
2017-10-21T09:44:50.003Z,21.58
2017-10-21T09:47:17.822Z,21.58
2017-10-21T09:49:45.346Z,21.77
2017-10-21T09:52:13.323Z,21.51
2017-10-21T09:54:40.931Z,21.33
2017-10-21T09:57:08.525Z,21.60
2017-10-21T09:59:36.022Z,22.55
2017-10-21T10:02:04.258Z,23.26
2017-10-21T10:04:31.879Z,23.17
2017-10-21T10:06:59.477Z,23.48
2017-10-21T10:09:27.076Z,24.21
2017-10-21T10:11:54.672Z,25.09
2017-10-21T10:14:22.229Z,25.20
2017-10-21T10:16:49.737Z,24.76
2017-10-21T10:19:17.245Z,24.46
2017-10-21T10:21:44.755Z,24.77
2017-10-21T10:24:12.258Z,24.23
2017-10-21T10:26:39.783Z,24.07
2017-10-21T10:29:08.232Z,23.78
2017-10-21T10:31:35.818Z,23.13
2017-10-21T10:34:03.335Z,22.59
2017-10-21T10:36:30.963Z,22.55
2017-10-21T10:38:58.520Z,22.19
2017-10-21T10:41:26.289Z,22.44
2017-10-21T10:43:53.794Z,23.15
2017-10-21T10:46:21.407Z,23.92
2017-10-21T10:48:49.074Z,24.44
2017-10-21T10:51:16.870Z,23.61
2017-10-21T10:53:44.434Z,23.81
2017-10-21T10:56:11.949Z,23.33
2017-10-21T10:58:39.739Z,23.12
2017-10-21T11:01:07.285Z,23.37
2017-10-21T11:03:34.983Z,23.48
2017-10-21T11:06:02.598Z,23.05
2017-10-21T11:08:30.102Z,23.51
2017-10-21T11:10:57.699Z,23.30
2017-10-21T11:13:25.210Z,23.30
2017-10-21T11:15:53.020Z,23.19
2017-10-21T11:18:20.562Z,23.07
2017-10-21T11:20:48.991Z,22.85
2017-10-21T11:23:16.501Z,22.61
2017-10-21T11:25:44.123Z,22.74
2017-10-21T11:28:12.553Z,22.96
2017-10-21T11:30:40.301Z,22.58
2017-10-21T11:33:08.836Z,22.73
2017-10-21T11:35:36.398Z,22.62
2017-10-21T11:38:03.967Z,22.85
2017-10-21T11:40:31.737Z,23.11
2017-10-21T11:42:59.251Z,23.01
2017-10-21T11:45:26.894Z,22.93
2017-10-21T11:47:54.529Z,22.60
2017-10-21T11:50:22.105Z,22.66
2017-10-21T11:52:49.667Z,22.55
2017-10-21T11:55:17.419Z,22.49
2017-10-21T11:57:45.679Z,22.42
2017-10-21T12:00:13.256Z,22.06
2017-10-21T12:02:40.853Z,22.02
2017-10-21T12:05:08.534Z,22.14
2017-10-21T12:07:36.063Z,22.28
2017-10-21T12:10:04.062Z,22.36
2017-10-21T12:12:32.125Z,22.41
2017-10-21T12:15:00.270Z,22.30
2017-10-21T12:17:28.222Z,22.13
2017-10-21T12:19:56.884Z,22.10
2017-10-21T12:22:26.003Z,22.33
2017-10-21T12:24:53.726Z,22.14
2017-10-21T12:27:21.821Z,21.85
2017-10-21T12:29:49.773Z,21.89
2017-10-21T12:32:33.364Z,22.01
2017-10-21T12:35:03.498Z,21.84
2017-10-21T12:37:36.092Z,22.13
2017-10-21T12:40:05.139Z,22.40
2017-10-21T12:42:33.923Z,22.32
2017-10-21T12:45:02.286Z,22.38
2017-10-21T12:47:30.555Z,22.22
2017-10-21T12:50:02.622Z,22.37
2017-10-21T12:52:31.356Z,22.64
2017-10-21T12:54:58.992Z,22.85
2017-10-21T12:57:27.222Z,23.18
2017-10-21T12:59:54.961Z,23.39
2017-10-21T13:02:22.778Z,23.28
2017-10-21T13:04:52.370Z,22.89
2017-10-21T13:07:20.149Z,23.24
2017-10-21T13:09:47.761Z,23.65
2017-10-21T13:12:15.365Z,23.52
2017-10-21T13:14:42.894Z,23.30
2017-10-21T13:17:10.432Z,22.94
2017-10-21T13:19:38.918Z,22.55
2017-10-21T13:22:06.456Z,22.38
2017-10-21T13:24:33.970Z,22.31
2017-10-21T13:27:01.521Z,22.22
2017-10-21T13:29:29.033Z,22.48
2017-10-21T13:31:56.555Z,22.46
2017-10-21T13:34:24.221Z,22.46
2017-10-21T13:36:51.839Z,22.29
2017-10-21T13:39:19.397Z,22.03
2017-10-21T13:41:46.953Z,21.95
2017-10-21T13:44:14.497Z,21.83
2017-10-21T13:46:42.030Z,21.66
2017-10-21T13:49:09.577Z,21.86
2017-10-21T13:51:37.111Z,21.94
2017-10-21T13:54:04.617Z,21.88
2017-10-21T13:56:32.214Z,21.91
2017-10-21T13:58:59.710Z,22.12
2017-10-21T14:01:27.487Z,22.06
2017-10-21T14:03:55.175Z,22.29
2017-10-21T14:06:22.773Z,22.23
2017-10-21T14:08:50.377Z,22.07
2017-10-21T14:11:17.981Z,22.12
2017-10-21T14:13:45.998Z,21.83
2017-10-21T14:16:13.601Z,21.88
2017-10-21T14:18:41.313Z,21.84
2017-10-21T14:21:08.888Z,21.79
2017-10-21T14:23:37.429Z,21.93
2017-10-21T14:26:04.950Z,22.08
2017-10-21T14:28:32.544Z,22.00
2017-10-21T14:31:00.150Z,21.97
2017-10-21T14:33:27.717Z,21.96
2017-10-21T14:35:55.262Z,21.97
2017-10-21T14:38:22.754Z,21.86
2017-10-21T14:40:51.263Z,22.21
2017-10-21T14:43:18.864Z,22.04
2017-10-21T14:45:46.467Z,22.07
2017-10-21T14:48:14.007Z,21.89
2017-10-21T14:50:41.512Z,21.92
2017-10-21T14:53:09.048Z,22.05
2017-10-21T14:55:36.718Z,22.23
2017-10-21T14:58:04.214Z,22.27
2017-10-21T15:00:31.890Z,22.18
2017-10-21T15:02:59.460Z,21.75
2017-10-21T15:05:26.968Z,21.98
2017-10-21T15:07:54.560Z,22.03
2017-10-21T15:10:22.120Z,22.14
2017-10-21T15:12:49.894Z,22.15
2017-10-21T15:15:18.310Z,22.16
2017-10-21T15:17:45.911Z,22.25
2017-10-21T15:20:13.401Z,22.25
2017-10-21T15:22:40.916Z,22.17
2017-10-21T15:25:08.501Z,22.17
2017-10-21T15:27:36.078Z,22.17
2017-10-21T15:30:03.732Z,22.19
2017-10-21T15:32:32.308Z,22.21
2017-10-21T15:34:59.908Z,22.14
2017-10-21T15:37:27.713Z,22.15
2017-10-21T15:39:56.458Z,21.86
2017-10-21T15:42:24.018Z,21.69
2017-10-21T15:44:51.554Z,21.62
2017-10-21T15:47:19.117Z,21.62
2017-10-21T15:49:46.665Z,21.64
2017-10-21T15:52:14.406Z,21.61
2017-10-21T15:54:41.942Z,21.62
2017-10-21T15:57:09.480Z,21.59
2017-10-21T15:59:37.363Z,21.57
2017-10-21T16:02:04.913Z,21.44
2017-10-21T16:04:32.471Z,21.22
2017-10-21T16:07:00.015Z,21.18
2017-10-21T16:09:27.585Z,21.20
2017-10-21T16:11:55.111Z,21.20
2017-10-21T16:14:23.365Z,21.18
2017-10-21T16:16:51.253Z,21.14
2017-10-21T16:19:18.928Z,21.08
2017-10-21T16:21:46.567Z,21.06
2017-10-21T16:24:14.070Z,21.03
2017-10-21T16:26:41.633Z,20.96
2017-10-21T16:29:09.138Z,20.87
2017-10-21T16:31:37.718Z,20.77
2017-10-21T16:34:05.404Z,20.63
2017-10-21T16:36:33.596Z,20.48
2017-10-21T16:39:03.205Z,20.50
2017-10-21T16:41:31.102Z,20.82
2017-10-21T16:43:59.369Z,20.75
2017-10-21T16:46:27.870Z,20.57
2017-10-21T16:48:55.560Z,20.58
2017-10-21T16:51:24.718Z,20.61
2017-10-21T16:53:52.549Z,19.13
2017-10-21T16:56:20.504Z,17.80
2017-10-21T16:58:49.388Z,18.49
2017-10-21T17:01:17.149Z,18.13
2017-10-21T17:03:45.670Z,17.62
2017-10-21T17:06:13.869Z,17.66
2017-10-21T17:08:41.680Z,17.30
2017-10-21T17:11:09.202Z,17.03
2017-10-21T17:13:38.758Z,16.99
2017-10-21T17:16:07.430Z,16.58
2017-10-21T17:18:35.319Z,16.47
2017-10-21T17:21:03.356Z,16.39
2017-10-21T17:23:32.509Z,16.27
2017-10-21T17:26:05.153Z,16.39
2017-10-21T17:28:33.824Z,15.90
2017-10-21T17:31:01.479Z,16.10
2017-10-21T17:33:29.222Z,16.00
2017-10-21T17:35:57.020Z,15.91
2017-10-21T17:38:25.185Z,15.72
2017-10-21T17:40:53.222Z,15.49
2017-10-21T17:43:21.126Z,15.48
2017-10-21T17:45:50.008Z,15.54
2017-10-21T17:48:17.801Z,15.31
2017-10-21T17:50:45.766Z,15.51
2017-10-21T17:53:13.356Z,15.97
2017-10-21T17:55:41.718Z,15.87
2017-10-21T17:58:09.573Z,16.01
2017-10-21T18:00:37.124Z,15.87
2017-10-21T18:03:05.894Z,15.50
2017-10-21T18:05:33.960Z,15.95
2017-10-21T18:08:02.192Z,15.76
2017-10-21T18:10:30.024Z,15.98
2017-10-21T18:12:57.581Z,15.94
2017-10-21T18:15:25.109Z,15.97
2017-10-21T18:17:52.795Z,15.76
2017-10-21T18:20:20.928Z,15.83
2017-10-21T18:22:48.764Z,15.78
2017-10-21T18:25:16.551Z,16.14
2017-10-21T18:27:44.621Z,16.21
2017-10-21T18:30:13.098Z,16.02
2017-10-21T18:32:41.388Z,16.01
2017-10-21T18:35:09.601Z,16.11
2017-10-21T18:37:38.378Z,16.24
2017-10-21T18:40:06.355Z,16.43
2017-10-21T18:42:34.403Z,16.58
2017-10-21T18:45:04.363Z,16.56
2017-10-21T18:47:33.303Z,16.61
2017-10-21T18:50:02.716Z,16.84
2017-10-21T18:52:30.438Z,16.70
2017-10-21T18:54:59.497Z,16.60
2017-10-21T18:57:27.347Z,16.36
2017-10-21T18:59:55.932Z,16.47
2017-10-21T19:02:24.164Z,16.55
2017-10-21T19:04:53.005Z,16.49
2017-10-21T19:07:22.026Z,16.03
2017-10-21T19:09:50.892Z,15.98
2017-10-21T19:12:20.088Z,16.05
2017-10-21T19:14:48.635Z,16.08
2017-10-21T19:17:16.889Z,15.76
2017-10-21T19:19:44.542Z,15.68
2017-10-21T19:22:12.590Z,15.86
2017-10-21T19:24:41.131Z,15.81
2017-10-21T19:27:09.482Z,15.82
2017-10-21T19:29:37.357Z,15.89
2017-10-21T19:32:04.955Z,15.24
2017-10-21T19:34:32.573Z,15.51
2017-10-21T19:37:00.398Z,15.49
2017-10-21T19:39:27.930Z,15.58
2017-10-21T19:41:55.506Z,15.12
2017-10-21T19:44:23.438Z,15.20
2017-10-21T19:46:52.134Z,14.83
2017-10-21T19:49:21.240Z,15.21
2017-10-21T19:51:49.374Z,15.03
2017-10-21T19:54:16.873Z,15.21
2017-10-21T19:56:45.416Z,15.29
2017-10-21T19:59:13.655Z,15.26
2017-10-21T20:01:41.365Z,15.26
2017-10-21T20:04:09.071Z,15.39
2017-10-21T20:06:36.682Z,15.25
2017-10-21T20:09:04.603Z,15.30
2017-10-21T20:11:33.254Z,15.44
2017-10-21T20:14:01.990Z,15.52
2017-10-21T20:16:30.038Z,15.40
2017-10-21T20:18:57.880Z,15.22
2017-10-21T20:21:29.001Z,14.99
2017-10-21T20:23:56.701Z,14.89
2017-10-21T20:26:25.147Z,14.81
2017-10-21T20:28:52.693Z,14.60
2017-10-21T20:31:21.221Z,14.44
2017-10-21T20:33:49.394Z,14.75
2017-10-21T20:36:16.968Z,14.93
2017-10-21T20:38:46.039Z,15.03
2017-10-21T20:41:14.101Z,15.10
2017-10-21T20:43:42.491Z,15.12
2017-10-21T20:46:10.364Z,15.12
2017-10-21T20:48:37.951Z,15.32
2017-10-21T20:51:06.511Z,15.25
2017-10-21T20:53:34.377Z,15.24
2017-10-21T20:56:02.721Z,14.58
2017-10-21T20:58:31.335Z,15.03
2017-10-21T21:00:59.015Z,15.07
2017-10-21T21:03:27.112Z,15.24
2017-10-21T21:05:54.793Z,15.00
2017-10-21T21:08:23.451Z,14.69
2017-10-21T21:10:52.144Z,14.61
2017-10-21T21:13:22.067Z,14.69
2017-10-21T21:15:49.764Z,14.70
2017-10-21T21:18:17.881Z,14.49
2017-10-21T21:20:45.504Z,14.70
2017-10-21T21:23:15.864Z,14.71
2017-10-21T21:25:45.148Z,14.88
2017-10-21T21:28:13.042Z,14.98
2017-10-21T21:30:42.707Z,15.01
2017-10-21T21:33:10.706Z,15.09
2017-10-21T21:35:40.314Z,15.06
2017-10-21T21:38:09.559Z,15.05
2017-10-21T21:40:37.224Z,14.82
2017-10-21T21:43:04.942Z,14.81
2017-10-21T21:45:32.477Z,14.75
2017-10-21T21:48:00.101Z,14.47
2017-10-21T21:50:29.160Z,14.37
2017-10-21T21:52:56.846Z,14.45
2017-10-21T21:55:25.715Z,14.36
2017-10-21T21:57:53.367Z,14.29
2017-10-21T22:00:21.053Z,14.53
2017-10-21T22:02:49.308Z,14.56
2017-10-21T22:05:17.648Z,14.60
2017-10-21T22:07:46.444Z,14.73
2017-10-21T22:10:14.045Z,14.70
2017-10-21T22:12:41.761Z,14.70
2017-10-21T22:15:09.305Z,14.30
2017-10-21T22:17:37.430Z,14.13
2017-10-21T22:20:05.908Z,14.21
2017-10-21T22:22:33.686Z,14.37
2017-10-21T22:25:01.779Z,14.43
2017-10-21T22:27:31.341Z,13.90
2017-10-21T22:29:58.953Z,13.79
2017-10-21T22:32:27.131Z,13.40
2017-10-21T22:34:55.314Z,13.74
2017-10-21T22:37:22.931Z,13.52
2017-10-21T22:39:50.535Z,13.62
2017-10-21T22:42:18.188Z,13.41
2017-10-21T22:44:46.019Z,13.58
2017-10-21T22:47:14.534Z,13.55
2017-10-21T22:49:42.168Z,13.38
2017-10-21T22:52:10.585Z,13.05
2017-10-21T22:54:38.186Z,13.23
2017-10-21T22:57:06.073Z,13.28
2017-10-21T22:59:33.870Z,13.20
2017-10-21T23:02:01.433Z,13.10
2017-10-21T23:04:28.976Z,13.06
2017-10-21T23:06:56.661Z,13.22
2017-10-21T23:09:24.308Z,13.13
2017-10-21T23:11:51.851Z,13.12
2017-10-21T23:14:19.525Z,13.23
2017-10-21T23:16:47.165Z,12.95
2017-10-21T23:19:14.699Z,13.25
2017-10-21T23:21:42.235Z,13.34
2017-10-21T23:24:09.877Z,13.18
2017-10-21T23:26:38.362Z,13.07
2017-10-21T23:29:09.766Z,13.20
2017-10-21T23:31:37.283Z,12.93
2017-10-21T23:34:05.161Z,13.02
2017-10-21T23:36:32.758Z,12.89
2017-10-21T23:39:00.365Z,12.87
2017-10-21T23:41:28.705Z,12.86
2017-10-21T23:43:58.559Z,12.87
2017-10-21T23:46:27.646Z,12.90
2017-10-21T23:48:55.268Z,12.84
2017-10-21T23:51:22.900Z,12.83
2017-10-21T23:53:50.481Z,12.91
2017-10-21T23:56:18.161Z,12.94
2017-10-21T23:58:46.533Z,12.94
